This is the latest recevied weather packets stored in our database for station/object KC3ULW-13. If no packets are shown the sender has not sent any weather packets the latest 10 day(s).
| Time | Temp. | Humidity | Pressure | Rain* | Wind** | Luminosity | Snow |
|---|---|---|---|---|---|---|---|
| 1777818668 | 10.56° C | 46% | 1020.1 hPa | 0 mm | - | 635 W/m² | - |
| 1777818062 | 10° C | 50% | 1020.4 hPa | 0 mm | - | 610 W/m² | - |
| 1777817758 | 9.44° C | 51% | 1020.5 hPa | 0 mm | - | 602 W/m² | - |
| 1777817456 | 9.44° C | 53% | 1020.3 hPa | 0 mm | - | 599 W/m² | - |
| 1777816850 | 8.89° C | 54% | 1020.4 hPa | 0 mm | - | 563 W/m² | - |
| 1777816244 | 8.89° C | 54% | 1020.4 hPa | 0 mm | - | 504 W/m² | - |
| 1777814426 | 7.78° C | 61% | 1020.6 hPa | 0 mm | - | 344 W/m² | - |
| 1777812609 | 5.56° C | 70% | 1020.6 hPa | 0 mm | - | 202 W/m² | - |
| 1777812004 | 5° C | 73% | 1020.4 hPa | 0 mm | - | 46 W/m² | - |
| 1777808368 | 1.67° C | 90% | 1019.9 hPa | 0 mm | - | 28 W/m² | - |
| 1777807463 | 1.11° C | 90% | 1020.1 hPa | 0 mm | - | 25 W/m² | - |
| 1777804739 | 0° C | 90% | 1019.4 hPa | 0 mm | - | 10 W/m² | - |
| 1777804437 | 0° C | 90% | 1019.4 hPa | 0 mm | - | 6 W/m² | - |
| 1777804134 | 0° C | 89% | 1019.4 hPa | 0 mm | - | 4 W/m² | - |
| 1777803830 | 0° C | 89% | 1019.3 hPa | 0 mm | - | 3 W/m² | - |
| 1777803526 | 0° C | 89% | 1019.3 hPa | 0 mm | - | 0 W/m² | - |
| 1777802921 | 0° C | 89% | 1019.2 hPa | 0 mm | - | 0 W/m² | - |
| 1777802316 | 0.56° C | 89% | 1019.1 hPa | 0 mm | - | 0 W/m² | - |
| 1777801409 | 0.56° C | 89% | 1019.2 hPa | 0 mm | - | 0 W/m² | - |
| 1777801105 | 0.56° C | 89% | 1019.2 hPa | 0 mm | - | 0 W/m² | - |
| 1777800802 | 0.56° C | 89% | 1018.9 hPa | 0 mm | - | 0 W/m² | - |
| 1777800497 | 0.56° C | 89% | 1019.1 hPa | 0 mm | - | 0 W/m² | - |
| 1777800194 | 0.56° C | 89% | 1019.2 hPa | 0 mm | - | 0 W/m² | - |
| 1777799894 | 0.56° C | 89% | 1018.9 hPa | 0 mm | - | 0 W/m² | - |
| 1777799592 | 0.56° C | 88% | 1019.2 hPa | 0 mm | - | 0 W/m² | - |
* Rain latest hour (hover to see other rain measurements)
** Current wind speed in m/s (hover to see current wind gust speed)